Flight Track Log - Related Links

Times and Time Zones

All times are in EDT time to prevent confusion due to time zone crossing. See the DAL268 flight status page for this flight to view local times or setup timezone preferences in your user account.


Time Position Orientation Groundspeed Altitude Reporting Facility
EDT Latitude Longitude Course Direction KTS MPH feet Rate Location/Type
Fri 06:14:08 AM 40.6440 -73.7820 240° Southwest 2 2  Level FlightAware ADS-B
Fri 06:16:00 AM 40.5998 -73.4492 108° East  Level FlightAware Approximate
Fri 06:17:00 AM 40.5833 -73.2695 90° East  Level FlightAware Approximate
Fri 06:18:00 AM 40.5540 -73.0941 97° East  Level FlightAware Approximate
Fri 06:19:00 AM 40.5667 -72.9180 90° East  Level FlightAware Approximate
Fri 06:20:00 AM 40.6174 -72.7478 66° East  Level FlightAware Approximate
Fri 06:21:00 AM 40.6563 -72.5749 72° East  Level FlightAware Approximate
Fri 06:23:00 AM 40.6000 -73.4583 90° East  Level FlightAware Approximate
Fri 06:23:21 AM 40.6420 -73.7800 90° East 18 21  Level FlightAware ADS-B
Fri 06:23:49 AM 40.6420 -73.7790 90° East 22 25 144 Level FlightAware ADS-B
Fri 06:24:13 AM 40.6420 -73.7780 90° East 13 15 150 Level FlightAware ADS-B
Fri 06:24:45 AM 40.6430 -73.7770 37° Northeast 20 23 155 Level FlightAware ADS-B
Fri 06:25:11 AM 40.6440 -73.7770 360° North 26 30 163 Level FlightAware ADS-B
Fri 06:25:42 AM 40.6450 -73.7750 57° Northeast 31 36 171 Level FlightAware ADS-B
Fri 06:26:05 AM 40.6460 -73.7740 37° Northeast 34 39 180 Level FlightAware ADS-B
Fri 06:28:00 AM 40.5976 -73.4405 108° East  Level FlightAware Approximate
Fri 06:28:48 AM 40.6540 -73.7690 123° Southeast 18 21  Level FlightAware ADS-B
Fri 06:29:00 AM 40.5807 -73.2614 123° Southeast  Level FlightAware Approximate
Fri 06:31:00 AM 40.5853 -73.3912 108° East  Level FlightAware Approximate
Fri 06:32:00 AM 40.5650 -73.2152 97° East  Level FlightAware Approximate
Fri 06:33:00 AM 40.5500 -73.0334 90° East  Level FlightAware Approximate
Fri 06:33:18 AM 40.6540 -73.7660 90° East 26 30  Level FlightAware ADS-B
Fri 06:33:28 AM 40.6530 -73.7660 180° South 30 35 919 Level FlightAware ADS-B
Fri 06:34:32 AM 40.6360 -73.7790 210° Southwest 160 184 1,010 Level FlightAware ADS-B
Fri 06:35:09 AM 40.6060 -73.8010 209° Southwest 172 198 1,700 1,565 Climbing FlightAware ADS-B
Fri 06:35:41 AM 40.5833 -73.8167 72° East 187 215 1,800 978 Climbing New York TRACON
Fri 06:36:41 AM 40.5167 -73.8167 180° South 270 311 3,200 724 Climbing New York TRACON
Fri 06:37:00 AM 40.7602 -73.5180 108° East  Level Estimated
Fri 06:38:00 AM 40.8433 -73.3645 123° Southeast  Level Estimated
Fri 06:38:00 AM 40.6282 -73.6126 90° East  Level Estimated
Fri 06:39:00 AM 40.9261 -73.2106 97° East  Level Estimated
Fri 06:40:00 AM 41.0088 -73.0564 72° East  Level Estimated
Fri 06:45:00 AM 41.2152 -72.5163 72° East  Level Estimated
Fri 06:46:00 AM 41.2981 -72.3581 72° East  Level Estimated
Fri 06:47:00 AM 41.3809 -72.1995 66° East  Level Estimated
Fri 06:48:00 AM 41.4635 -72.0405 69° East  Level Estimated
Fri 06:49:00 AM 41.5458 -71.8811 72° East  Level Estimated
Fri 06:50:00 AM 41.5188 -71.6907 101° East  Level FlightAware Approximate
Fri 06:51:00 AM 41.4915 -71.5005 101° East  Level FlightAware Approximate
Fri 06:52:00 AM 41.4638 -71.3105 101° East  Level FlightAware Approximate
Fri 06:53:00 AM 41.4359 -71.1206 101° East  Level FlightAware Approximate
Fri 06:54:00 AM 41.4076 -70.9309 101° East  Level FlightAware Approximate
Fri 06:55:00 AM 41.3790 -70.7414 101° East  Level FlightAware Approximate
Fri 06:56:00 AM 41.4597 -70.5809 56° Northeast  Level Estimated
Fri 06:57:00 AM 41.5402 -70.4200 56° Northeast  Level Estimated
Fri 06:58:00 AM 41.6204 -70.2587 56° Northeast  Level Estimated
Fri 06:59:00 AM 41.7005 -70.0971 56° Northeast  Level Estimated
Fri 07:00:00 AM 41.7802 -69.9350 57° Northeast  Level Estimated
Fri 07:01:00 AM 41.8598 -69.7725 57° Northeast  Level Estimated
Fri 07:02:00 AM 41.9391 -69.6096 57° Northeast  Level Estimated
Fri 07:03:00 AM 42.0182 -69.4463 57° Northeast  Level Estimated
Fri 07:04:00 AM 42.0971 -69.2826 57° Northeast  Level Estimated
Fri 07:05:00 AM 42.1757 -69.1184 57° Northeast  Level Estimated
Fri 07:06:00 AM 42.2541 -68.9539 57° Northeast  Level Estimated
Fri 07:07:00 AM 42.3323 -68.7890 57° Northeast  Level Estimated
Fri 07:08:00 AM 42.4102 -68.6237 57° Northeast  Level Estimated
Fri 07:09:00 AM 42.4879 -68.4579 58° Northeast  Level Estimated
Fri 07:10:00 AM 42.5654 -68.2917 58° Northeast  Level Estimated
Fri 07:11:00 AM 42.6426 -68.1252 58° Northeast  Level Estimated
Fri 07:12:00 AM 42.7195 -67.9582 58° Northeast  Level Estimated
Fri 07:13:00 AM 42.7963 -67.7908 58° Northeast  Level Estimated
Fri 07:14:00 AM 42.8727 -67.6230 58° Northeast  Level Estimated
Fri 07:15:00 AM 42.9490 -67.4547 58° Northeast  Level Estimated
Fri 07:16:00 AM 43.0250 -67.2859 58° Northeast  Level Estimated
Fri 07:17:00 AM 43.1009 -67.1166 58° Northeast  Level Estimated
Fri 07:18:00 AM 43.1764 -66.9470 59° Northeast  Level Estimated
Fri 07:18:37 AM 43.5550 -67.5600 49° Northeast 533 613 32,900  Level Boston Center
Fri 07:19:00 AM 43.2518 -66.7768 59° Northeast  Level Estimated
Fri 07:20:00 AM 43.3268 -66.6063 59° Northeast  Level Estimated
Fri 07:20:48 AM 43.6410 -67.4150 59° Northeast 529 609 33,000  Level FlightAware ADS-B
Fri 07:23:00 AM 43.8589 -67.0918 49° Northeast  Level FlightAware Approximate
Fri 07:24:02 AM 44.0930 -66.6830 49° Northeast 547 629 33,000  Level FlightAware ADS-B
Fri 07:24:46 AM 44.1550 -66.5790 50° Northeast 547 629 33,000  Level FlightAware ADS-B
Fri 07:25:22 AM 44.2050 -66.4960 50° Northeast 547 629 33,000  Level FlightAware ADS-B
Fri 07:29:19 AM 44.5990 -65.8140 51° Northeast 546 628 33,000  Level FlightAware ADS-B
Fri 07:29:51 AM 44.6480 -65.7270 52° Northeast 545 627 33,000 -80 Level FlightAware ADS-B
Fri 07:30:34 AM 44.7170 -65.6060 51° Northeast 543 625 32,900  Descending FlightAware ADS-B
Fri 07:31:19 AM 44.7870 -65.4830 51° Northeast 541 623 33,000 71 Climbing FlightAware ADS-B
Fri 07:31:59 AM 44.8510 -65.3700 51° Northeast 539 620 33,000  Level FlightAware ADS-B
Fri 07:32:40 AM 44.9120 -65.2610 52° Northeast 539 620 33,000 -69 Level FlightAware ADS-B
Fri 07:33:26 AM 44.9840 -65.1330 51° Northeast 542 624 32,900 -69 Descending FlightAware ADS-B
Fri 07:34:07 AM 45.0480 -65.0170 52° Northeast 545 627 32,900 71 Level FlightAware ADS-B
Fri 07:34:51 AM 45.1170 -64.8930 52° Northeast 546 628 33,000 79 Climbing FlightAware ADS-B
Fri 07:35:23 AM 45.1680 -64.8020 51° Northeast 546 628 33,000  Level FlightAware ADS-B
Fri 07:36:25 AM 45.2620 -64.6300 52° Northeast 546 628 33,000  Level FlightAware ADS-B
Fri 07:37:51 AM 45.3940 -64.3870 52° Northeast 548 631 33,000  Level FlightAware ADS-B
Fri 07:38:43 AM 45.4700 -64.2490 52° Northeast 548 631 33,000  Level FlightAware ADS-B
Fri 07:39:31 AM 45.5330 -64.1320 52° Northeast 548 631 33,000  Level FlightAware ADS-B
Fri 07:41:03 AM 45.6550 -63.9090 52° Northeast 548 631 33,000  Level FlightAware ADS-B
Fri 07:41:27 AM 45.6870 -63.8510 52° Northeast 548 631 33,000  Level FlightAware ADS-B
Fri 07:42:13 AM 45.7480 -63.7390 52° Northeast 548 631 33,000  Level FlightAware ADS-B
Fri 07:43:02 AM 45.8130 -63.6190 52° Northeast 548 631 33,000  Level FlightAware ADS-B
Fri 07:43:39 AM 45.8620 -63.5290 52° Northeast 548 631 33,000  Level FlightAware ADS-B
Fri 07:46:00 AM 46.0653 -63.1321 53° Northeast  Level FlightAware Approximate
Fri 07:46:27 AM 46.1830 -62.8940 53° Northeast 549 632 33,000  Level FlightAware ADS-B
Fri 07:47:06 AM 46.2430 -62.7770 53° Northeast 550 633 33,000  Level FlightAware ADS-B
Fri 07:47:54 AM 46.3150 -62.6360 53° Northeast 551 634 33,000  Level FlightAware ADS-B
Fri 07:48:32 AM 46.3720 -62.5230 54° Northeast 551 634 33,000 -71 Level FlightAware ADS-B
Fri 07:49:18 AM 46.4410 -62.3870 54° Northeast 552 635 32,900  Descending FlightAware ADS-B
Fri 07:49:56 AM 46.4980 -62.2730 54° Northeast 552 635 33,000 57 Climbing FlightAware ADS-B
Fri 07:51:04 AM 46.6010 -62.0690 54° Northeast 554 638 33,000  Level FlightAware ADS-B
Fri 07:51:53 AM 46.6750 -61.9210 54° Northeast 553 636 33,000  Level FlightAware ADS-B
Fri 07:52:32 AM 46.7330 -61.8030 54° Northeast 553 636 33,000  Level FlightAware ADS-B
Fri 07:53:12 AM 46.7930 -61.6810 54° Northeast 553 636 33,000  Level FlightAware ADS-B
Fri 07:53:58 AM 46.8620 -61.5410 54° Northeast 554 638 33,000  Level FlightAware ADS-B
Fri 07:54:34 AM 46.9160 -61.4310 54° Northeast 554 638 33,000  Level FlightAware ADS-B
Fri 07:55:14 AM 46.9750 -61.3100 54° Northeast 554 638 33,000 -83 Level FlightAware ADS-B
Fri 07:55:46 AM 47.0000 -61.2000 54° Northeast 550 633 32,900 -65 Descending Moncton Center
Fri 07:56:46 AM 47.1000 -61.0000 54° Northeast 550 633 32,900  Level Moncton Center
Fri 07:59:00 AM 47.1917 -60.8329 54° Northeast  Level FlightAware Approximate
Fri 08:01:00 AM 47.4667 -60.2167 58° Northeast 560 644 32,900  Level Gander Center
Fri 08:01:46 AM 47.5167 -60.0500 66° East 570 656 32,900  Level Moncton Center
Fri 08:02:46 AM 47.6167 -59.8833 48° Northeast 560 644 32,900  Level Moncton Center
Fri 08:03:46 AM 47.6833 -59.6667 65° Northeast 570 656 32,900  Level Moncton Center
Fri 08:04:28 AM 47.7500 -59.5167 56° Northeast 570 656 32,900  Level Gander Center
Fri 08:05:28 AM 47.8333 -59.3333 56° Northeast 570 656 32,900  Level Gander Center
Fri 08:06:00 AM 47.7404 -59.5676 58° Northeast  Level FlightAware Approximate
Fri 08:06:28 AM 47.9333 -59.1167 55° Northeast 570 656 32,900  Level Gander Center
Fri 08:07:46 AM 48.0333 -58.8667 59° Northeast 570 656 32,900  Level Moncton Center
Fri 08:09:28 AM 48.1667 -58.5333 59° Northeast 580 667 32,900 13 Level Gander Center
Fri 08:11:00 AM 48.2424 -58.3466 59° Northeast  Level FlightAware Approximate
Fri 08:15:46 AM 48.6833 -57.1833 60° Northeast 570 656 33,000  Level Moncton Center
Fri 08:16:28 AM 48.7333 -57.0500 60° Northeast 570 656 32,900 -59 Descending Gander Center
Fri 08:17:28 AM 48.8167 -56.8333 60° Northeast 580 667 32,900  Level Gander Center
Fri 08:18:00 AM 48.7639 -57.0241 59° Northeast  Level FlightAware Approximate
Fri 08:19:00 AM 48.8372 -56.8330 60° Northeast  Level FlightAware Approximate
Fri 08:19:00 AM 48.9167 -56.5167 64° Northeast 580 667 32,900  Level Gander Center
Fri 08:20:00 AM 48.9101 -56.6413 60° Northeast  Level FlightAware Approximate
Fri 08:20:00 AM 49.0000 -56.2833 61° Northeast 580 667 32,900  Level Gander Center
Fri 08:20:46 AM 49.0667 -56.1333 56° Northeast 580 667 32,900  Level Moncton Center
Fri 08:22:00 AM 49.1500 -55.8833 63° Northeast 570 656 32,900  Level Gander Center
Fri 08:23:00 AM 49.2333 -55.6500 61° Northeast 570 656 32,900  Level Gander Center
Fri 08:25:00 AM 49.3667 -55.2167 65° Northeast 570 656 32,900 260 Level Gander Center
Fri 08:26:28 AM 49.4667 -54.9000 64° Northeast 570 656 33,800 811 Climbing Gander Center
Fri 08:27:28 AM 49.5500 -54.7000 57° Northeast 570 656 34,900 434 Climbing Gander Center
Fri 08:29:00 AM 49.6667 -54.3500 63° Northeast 570 656 34,900  Level Gander Center
Fri 08:30:00 AM 49.7405 -54.1556 59° Northeast  Level FlightAware Approximate
Fri 08:31:00 AM 49.8000 -53.9167 59° Northeast 570 656 34,900  Level Gander Center
Fri 08:32:46 AM 49.9167 -53.5333 65° Northeast 560 644 34,900  Level Moncton Center
Fri 08:34:00 AM 50.0128 -53.2971 58° Northeast  Level FlightAware Approximate
Fri 08:41:00 AM 50.5312 -51.9236 69° East  Level FlightAware Approximate
Fri 08:42:00 AM 50.5827 -51.7128 69° East  Level FlightAware Approximate
Fri 08:43:00 AM 50.6338 -51.5016 69° East  Level FlightAware Approximate
Fri 08:44:00 AM 50.6854 -51.2863 69° East  Level FlightAware Approximate
Fri 08:45:00 AM 50.7366 -51.0706 69° East  Level FlightAware Approximate
Fri 08:46:00 AM 50.7875 -50.8544 70° East  Level FlightAware Approximate
Fri 08:47:00 AM 50.8379 -50.6377 70° East  Level FlightAware Approximate
Fri 08:48:00 AM 50.8879 -50.4205 70° East  Level FlightAware Approximate
Fri 08:49:00 AM 50.9375 -50.2029 70° East  Level FlightAware Approximate
Fri 08:50:00 AM 50.9939 -50.0000 North  Level FlightAware Approximate
Fri 08:51:00 AM 51.0501 -49.7925 69° East  Level FlightAware Approximate
Fri 08:52:00 AM 51.1020 -49.5755 69° East  Level FlightAware Approximate
Fri 08:52:28 AM 51.1500 -49.2667 69° East 530 610 34,900  Level Gander Center
Fri 08:53:00 AM 51.1535 -49.3581 69° East  Level FlightAware Approximate
Fri 08:54:00 AM 51.2046 -49.1402 69° East  Level FlightAware Approximate
Fri 08:54:00 AM 51.2165 -48.9263 73° East  Level Estimated
Fri 08:55:00 AM 51.2553 -48.9217 70° East  Level FlightAware Approximate
Fri 08:56:00 AM 51.3065 -48.7036 69° East  Level FlightAware Approximate
Fri 08:57:00 AM 51.3586 -48.4856 69° East  Level FlightAware Approximate
Fri 09:01:00 AM 51.5075 -47.3599 73° East  Level Estimated
Fri 09:02:00 AM 51.5474 -47.1345 74° East  Level Estimated
Fri 09:03:00 AM 51.5868 -46.9088 74° East  Level Estimated
Fri 09:04:00 AM 51.6258 -46.6826 74° East  Level Estimated
Fri 09:05:00 AM 51.6644 -46.4561 75° East  Level Estimated
Fri 09:06:00 AM 51.7025 -46.2292 75° East  Level Estimated
Fri 09:07:00 AM 51.7402 -46.0019 75° East  Level Estimated
Fri 09:08:00 AM 51.7775 -45.7742 75° East  Level Estimated
Fri 09:09:00 AM 51.8143 -45.5461 75° East  Level Estimated
Fri 09:10:00 AM 51.8506 -45.3177 75° East  Level Estimated
Fri 09:11:00 AM 51.8866 -45.0889 76° East  Level Estimated
Fri 09:12:00 AM 51.9220 -44.8598 76° East  Level Estimated
Fri 09:13:00 AM 51.9571 -44.6302 76° East  Level Estimated
Fri 09:14:00 AM 51.9916 -44.4004 76° East  Level Estimated
Fri 09:15:00 AM 52.0258 -44.1701 76° East  Level Estimated
Fri 09:16:00 AM 52.0595 -43.9396 77° East  Level Estimated
Fri 09:17:00 AM 52.0927 -43.7086 77° East  Level Estimated
Fri 09:18:00 AM 52.1255 -43.4774 77° East  Level Estimated
Fri 09:19:00 AM 52.1578 -43.2458 77° East  Level Estimated
Fri 09:20:00 AM 52.1897 -43.0138 77° East  Level Estimated
Fri 09:21:00 AM 52.2211 -42.7816 77° East  Level Estimated
Fri 09:22:00 AM 52.2521 -42.5490 78° East  Level Estimated
Fri 09:23:00 AM 52.2826 -42.3161 78° East  Level Estimated
Fri 09:24:00 AM 52.3126 -42.0828 78° East  Level Estimated
Fri 09:25:00 AM 52.3422 -41.8493 78° East  Level Estimated
Fri 09:26:00 AM 52.3714 -41.6154 78° East  Level Estimated
Fri 09:27:00 AM 52.4000 -41.3812 79° East  Level Estimated
Fri 09:28:00 AM 52.4282 -41.1468 79° East  Level Estimated
Fri 09:29:00 AM 52.4560 -40.9120 79° East  Level Estimated
Fri 09:30:00 AM 52.4832 -40.6769 79° East  Level Estimated
Fri 09:31:00 AM 52.5101 -40.4416 79° East  Level Estimated
Fri 09:32:00 AM 52.5364 -40.2060 79° East  Level Estimated
Fri 09:33:00 AM 52.5623 -39.9701 80° East  Level Estimated
Fri 09:34:00 AM 52.5877 -39.7339 80° East  Level Estimated
Fri 09:35:00 AM 52.6126 -39.4974 80° East  Level Estimated
Fri 09:36:00 AM 52.6371 -39.2607 80° East  Level Estimated
Fri 09:37:00 AM 52.6610 -39.0237 80° East  Level Estimated
Fri 09:38:00 AM 52.6846 -38.7864 81° East  Level Estimated
Fri 09:39:00 AM 52.7076 -38.5489 81° East  Level Estimated
Fri 09:40:00 AM 52.7302 -38.3112 81° East  Level Estimated
Fri 09:41:00 AM 52.7523 -38.0732 81° East  Level Estimated
Fri 09:42:00 AM 52.7739 -37.8350 81° East  Level Estimated
Fri 09:43:00 AM 52.7950 -37.5965 82° East  Level Estimated
Fri 09:44:00 AM 52.8157 -37.3578 82° East  Level Estimated
Fri 09:45:00 AM 52.8358 -37.1189 82° East  Level Estimated
Fri 09:46:00 AM 52.8555 -36.8798 82° East  Level Estimated
Fri 09:47:00 AM 52.8747 -36.6404 82° East  Level Estimated
Fri 09:48:00 AM 52.8935 -36.4008 83° East  Level Estimated
Fri 09:49:00 AM 52.9117 -36.1611 83° East  Level Estimated
Fri 09:50:00 AM 52.9295 -35.9211 83° East  Level Estimated
Fri 09:51:00 AM 52.9468 -35.6810 83° East  Level Estimated
Fri 09:52:00 AM 52.9636 -35.4406 83° East  Level Estimated
Fri 09:53:00 AM 52.9799 -35.2001 83° East  Level Estimated
Fri 09:54:00 AM 52.9957 -34.9594 84° East  Level Estimated
Fri 09:55:00 AM 53.0111 -34.7185 84° East  Level Estimated
Fri 09:56:00 AM 53.0259 -34.4774 84° East  Level Estimated
Fri 09:57:00 AM 53.0403 -34.2362 84° East  Level Estimated
Fri 09:58:00 AM 53.0542 -33.9948 84° East  Level Estimated
Fri 09:59:00 AM 53.0676 -33.7533 85° East  Level Estimated
Fri 10:00:00 AM 53.0805 -33.5116 85° East  Level Estimated
Fri 10:01:00 AM 53.0929 -33.2698 85° East  Level Estimated
Fri 10:02:00 AM 53.1048 -33.0278 85° East  Level Estimated
Fri 10:03:00 AM 53.1162 -32.7857 85° East  Level Estimated
Fri 10:04:00 AM 53.1272 -32.5435 86° East  Level Estimated
Fri 10:05:00 AM 53.1376 -32.3012 86° East  Level Estimated
Fri 10:06:00 AM 53.1476 -32.0587 86° East  Level Estimated
Fri 10:07:00 AM 53.1571 -31.8162 86° East  Level Estimated
Fri 10:08:00 AM 53.1660 -31.5735 86° East  Level Estimated
Fri 10:09:00 AM 53.1745 -31.3308 87° East  Level Estimated
Fri 10:10:00 AM 53.1825 -31.0879 87° East  Level Estimated
Fri 10:11:00 AM 53.1900 -30.8450 87° East  Level Estimated
Fri 10:12:00 AM 53.1970 -30.6019 87° East  Level Estimated
Fri 10:13:00 AM 53.2035 -30.3589 87° East  Level Estimated
Fri 10:14:00 AM 53.2095 -30.1157 88° East  Level Estimated
Fri 10:15:00 AM 53.2150 -29.8724 88° East  Level Estimated
Fri 10:16:00 AM 53.2200 -29.6291 88° East  Level Estimated
Fri 10:17:00 AM 53.2245 -29.3858 88° East  Level Estimated
Fri 10:18:00 AM 53.2285 -29.1424 88° East  Level Estimated
Fri 10:19:00 AM 53.2320 -28.9028 89° East  Level Estimated
Fri 10:20:00 AM 53.2350 -28.6632 89° East  Level Estimated
Fri 10:21:00 AM 53.2375 -28.4235 89° East  Level Estimated
Fri 10:22:00 AM 53.2396 -28.1838 89° East  Level Estimated
Fri 10:23:00 AM 53.2411 -27.9441 89° East  Level Estimated
Fri 10:24:00 AM 53.2422 -27.7043 89° East  Level Estimated
Fri 10:25:00 AM 53.2428 -27.4646 90° East  Level Estimated
Fri 10:26:00 AM 53.2429 -27.2249 90° East  Level Estimated
Fri 10:27:00 AM 53.2425 -26.9851 90° East  Level Estimated
Fri 10:28:00 AM 53.2417 -26.7454 90° East  Level Estimated
Fri 10:29:00 AM 53.2403 -26.5057 90° East  Level Estimated
Fri 10:30:00 AM 53.2385 -26.2660 91° East  Level Estimated
Fri 10:31:00 AM 53.2363 -26.0263 91° East  Level Estimated
Fri 10:32:00 AM 53.2335 -25.7866 91° East  Level Estimated
Fri 10:33:00 AM 53.2302 -25.5470 91° East  Level Estimated
Fri 10:34:00 AM 53.2265 -25.3074 91° East  Level Estimated
Fri 10:35:00 AM 53.2223 -25.0679 92° East  Level Estimated
Fri 10:36:00 AM 53.2176 -24.8284 92° East  Level Estimated
Fri 10:37:00 AM 53.2124 -24.5890 92° East  Level Estimated
Fri 10:38:00 AM 53.2067 -24.3496 92° East  Level Estimated
Fri 10:39:00 AM 53.2006 -24.1103 92° East  Level Estimated
Fri 10:40:00 AM 53.1940 -23.8711 93° East  Level Estimated
Fri 10:41:00 AM 53.1869 -23.6320 93° East  Level Estimated
Fri 10:42:00 AM 53.1793 -23.3929 93° East  Level Estimated
Fri 10:43:00 AM 53.1713 -23.1539 93° East  Level Estimated
Fri 10:44:00 AM 53.1628 -22.9150 93° East  Level Estimated
Fri 10:45:00 AM 53.1537 -22.6762 94° East  Level Estimated
Fri 10:46:00 AM 53.1443 -22.4375 94° East  Level Estimated
Fri 10:47:00 AM 53.1343 -22.1989 94° East  Level Estimated
Fri 10:48:00 AM 53.1239 -21.9605 94° East  Level Estimated
Fri 10:49:00 AM 53.1129 -21.7221 94° East  Level Estimated
Fri 10:50:00 AM 53.1016 -21.4839 94° East  Level Estimated
Fri 10:51:00 AM 53.0897 -21.2458 95° East  Level Estimated
Fri 10:52:00 AM 53.0774 -21.0078 95° East  Level Estimated
Fri 10:53:00 AM 53.0645 -20.7700 95° East  Level Estimated
Fri 10:54:00 AM 53.0513 -20.5323 95° East  Level Estimated
Fri 10:55:00 AM 53.0375 -20.2948 95° East  Level Estimated
Fri 10:56:00 AM 53.0233 -20.0574 96° East  Level Estimated
Fri 10:57:00 AM 53.0086 -19.8202 96° East  Level Estimated
Fri 10:58:00 AM 52.9934 -19.5831 96° East  Level Estimated
Fri 10:59:00 AM 52.9777 -19.3462 96° East  Level Estimated
Fri 11:00:00 AM 52.9616 -19.1095 96° East  Level Estimated
Fri 11:01:00 AM 52.9450 -18.8730 97° East  Level Estimated
Fri 11:02:00 AM 52.9280 -18.6366 97° East  Level Estimated
Fri 11:03:00 AM 52.9104 -18.4005 97° East  Level Estimated
Fri 11:04:00 AM 52.8924 -18.1645 97° East  Level Estimated
Fri 11:05:00 AM 52.8740 -17.9287 97° East  Level Estimated
Fri 11:06:00 AM 52.8550 -17.6931 97° East  Level Estimated
Fri 11:07:00 AM 52.8357 -17.4578 98° East  Level Estimated
Fri 11:08:00 AM 52.8158 -17.2226 98° East  Level Estimated
Fri 11:09:00 AM 52.7955 -16.9877 98° East  Level Estimated
Fri 11:10:00 AM 52.7747 -16.7530 98° East  Level Estimated
Fri 11:11:00 AM 52.7534 -16.5185 98° East  Level Estimated
Fri 11:12:00 AM 52.7317 -16.2843 99° East  Level Estimated
Fri 11:13:00 AM 52.7095 -16.0503 99° East  Level Estimated
Fri 11:14:00 AM 52.6869 -15.8165 99° East  Level Estimated
Fri 11:15:00 AM 52.6638 -15.5830 99° East  Level Estimated
Fri 11:16:00 AM 52.6403 -15.3497 99° East  Level Estimated
Fri 11:17:00 AM 52.6163 -15.1166 100° East  Level Estimated
Fri 11:18:00 AM 52.5918 -14.8839 100° East  Level Estimated
Fri 11:19:00 AM 52.5669 -14.6514 100° East  Level Estimated
Fri 11:20:00 AM 52.5415 -14.4191 100° East  Level Estimated
Fri 11:21:00 AM 52.5157 -14.1872 100° East  Level Estimated
Fri 11:22:00 AM 52.4894 -13.9555 100° East  Level Estimated
Fri 11:23:00 AM 52.4627 -13.7240 101° East  Level Estimated
Fri 11:24:00 AM 52.4355 -13.4929 101° East  Level Estimated
Fri 11:25:00 AM 52.4078 -13.2621 101° East  Level Estimated
Fri 11:26:00 AM 52.3797 -13.0315 101° East  Level Estimated
Fri 11:27:00 AM 52.3512 -12.8013 101° East  Level Estimated
Fri 11:28:00 AM 52.3222 -12.5713 102° East  Level Estimated
Fri 11:29:00 AM 52.2928 -12.3417 102° East  Level Estimated
Fri 11:30:00 AM 52.2629 -12.1123 102° East  Level Estimated
Fri 11:31:00 AM 52.2326 -11.8833 102° East  Level Estimated
Fri 11:32:00 AM 52.2019 -11.6545 102° East  Level Estimated
Fri 11:33:00 AM 52.1707 -11.4261 102° East  Level Estimated
Fri 11:34:00 AM 52.1390 -11.1981 103° East  Level Estimated
Fri 11:35:00 AM 52.1069 -10.9703 103° East  Level Estimated
Fri 11:36:00 AM 52.0744 -10.7429 103° East  Level Estimated
Fri 11:37:00 AM 52.0415 -10.5158 103° East  Level Estimated
Fri 11:38:00 AM 52.0081 -10.2890 103° East  Level Estimated
Fri 11:39:00 AM 51.9743 -10.0626 104° East  Level Estimated
Fri 11:40:00 AM 51.9400 -9.8365 104° East  Level Estimated
Fri 11:41:00 AM 51.9053 -9.6108 104° East  Level Estimated
Fri 11:42:00 AM 51.8702 -9.3855 104° East  Level Estimated
Fri 11:43:00 AM 51.8346 -9.1604 104° East  Level Estimated
Fri 11:44:00 AM 51.7987 -8.9358 104° East  Level Estimated
Fri 11:45:00 AM 51.7623 -8.7115 105° East  Level Estimated
Fri 11:46:00 AM 51.7254 -8.4875 105° East  Level Estimated
Fri 11:47:00 AM 51.6882 -8.2640 105° East  Level Estimated
Fri 11:48:00 AM 51.6505 -8.0408 105° East  Level Estimated
Fri 11:49:00 AM 51.6124 -7.8179 105° East  Level Estimated
Fri 11:50:00 AM 51.5739 -7.5955 105° East  Level Estimated
Fri 11:51:00 AM 51.5349 -7.3734 106° East  Level Estimated
Fri 11:52:00 AM 51.4955 -7.1517 106° East  Level Estimated
Fri 11:53:00 AM 51.4558 -6.9304 106° East  Level Estimated
Fri 11:54:00 AM 51.4156 -6.7095 106° East  Level Estimated
Fri 11:55:00 AM 51.3750 -6.4890 106° East  Level Estimated
Fri 11:56:00 AM 51.3339 -6.2688 107° East  Level Estimated
Fri 11:57:00 AM 51.2925 -6.0491 107° East  Level Estimated
Fri 11:58:00 AM 51.2506 -5.8298 107° East  Level Estimated
Fri 11:59:00 AM 51.2084 -5.6108 107° East  Level Estimated
Fri 12:00:00 PM 51.1657 -5.3923 107° East  Level Estimated
Fri 12:01:00 PM 51.1227 -5.1741 107° East  Level Estimated
Fri 12:02:00 PM 51.0792 -4.9564 108° East  Level Estimated
Fri 12:03:00 PM 51.0353 -4.7391 108° East  Level Estimated
Fri 12:04:00 PM 50.9910 -4.5222 108° East  Level Estimated
Fri 12:05:00 PM 50.9463 -4.3057 108° East  Level Estimated
Fri 12:06:00 PM 50.9013 -4.0896 108° East  Level Estimated
Fri 12:07:00 PM 50.8558 -3.8740 108° East  Level Estimated
Fri 12:08:00 PM 50.8099 -3.6588 109° East  Level Estimated
Fri 12:09:00 PM 50.7636 -3.4440 109° East  Level Estimated
Fri 12:10:00 PM 50.7170 -3.2296 109° East  Level Estimated
Fri 12:11:00 PM 50.6699 -3.0156 109° East  Level Estimated
Fri 12:12:00 PM 50.6225 -2.8021 109° East  Level Estimated
Fri 12:13:00 PM 50.5746 -2.5890 109° East  Level Estimated
Fri 12:14:00 PM 50.5264 -2.3764 110° East  Level Estimated
Fri 12:15:00 PM 50.4778 -2.1641 110° East  Level Estimated
Fri 12:16:00 PM 50.4288 -1.9524 110° East  Level Estimated
Fri 12:17:00 PM 50.3794 -1.7410 110° East  Level Estimated
Fri 12:18:00 PM 50.3296 -1.5301 110° East  Level Estimated
Fri 12:19:00 PM 50.2795 -1.3197 110° East  Level Estimated
Fri 12:20:00 PM 50.2290 -1.1097 111° Southeast  Level Estimated
Fri 12:21:00 PM 50.1781 -0.9001 111° Southeast  Level Estimated
Fri 12:22:00 PM 50.1268 -0.6910 111° Southeast  Level Estimated
Fri 12:23:00 PM 50.0751 -0.4823 111° Southeast  Level Estimated
Fri 12:24:00 PM 50.0231 -0.2741 111° Southeast  Level Estimated
Fri 12:25:00 PM 49.9707 -0.0663 111° Southeast  Level Estimated
Fri 12:26:00 PM 49.9180 0.1410 112° Southeast  Level Estimated
Fri 12:27:00 PM 49.8648 0.3478 112° Southeast  Level Estimated
Fri 12:28:00 PM 49.8113 0.5542 112° Southeast  Level Estimated
Fri 12:29:00 PM 49.7575 0.7602 112° Southeast  Level Estimated
Fri 12:30:00 PM 49.7032 0.9657 112° Southeast  Level Estimated
Fri 12:31:00 PM 49.6486 1.1707 112° Southeast  Level Estimated
Fri 12:32:00 PM 49.5937 1.3752 112° Southeast  Level Estimated
Fri 12:33:00 PM 49.5384 1.5793 113° Southeast  Level Estimated
Fri 12:34:00 PM 49.4827 1.7830 113° Southeast  Level Estimated
Fri 12:35:00 PM 49.4267 1.9861 113° Southeast  Level Estimated
Fri 12:36:00 PM 49.3703 2.1888 113° Southeast  Level Estimated
Fri 12:37:00 PM 49.3135 2.3911 113° Southeast  Level Estimated
Fri 12:38:00 PM 49.2564 2.5929 113° Southeast  Level Estimated
Fri 12:39:00 PM 49.1990 2.7942 114° Southeast  Level Estimated
Fri 12:40:00 PM 49.1412 2.9950 114° Southeast  Level Estimated
Fri 12:41:00 PM 49.0831 3.1954 114° Southeast  Level Estimated
Fri 12:42:00 PM 49.0246 3.3953 114° Southeast  Level Estimated
Fri 12:43:00 PM 48.9658 3.5947 114° Southeast  Level Estimated
Fri 12:44:00 PM 48.9066 3.7937 114° Southeast  Level Estimated
Fri 12:45:00 PM 48.8471 3.9922 114° Southeast  Level Estimated
Fri 12:46:00 PM 48.7872 4.1902 115° Southeast  Level Estimated
Fri 12:47:00 PM 48.7270 4.3877 115° Southeast  Level Estimated
Fri 12:48:00 PM 48.6665 4.5848 115° Southeast  Level Estimated
Fri 12:49:00 PM 48.6057 4.7814 115° Southeast  Level Estimated
Fri 12:50:00 PM 48.5444 4.9775 115° Southeast  Level Estimated
Fri 12:51:00 PM 48.4829 5.1731 115° Southeast  Level Estimated
Fri 12:52:00 PM 48.4211 5.3683 115° Southeast  Level Estimated
Fri 12:53:00 PM 48.3589 5.5630 116° Southeast  Level Estimated
Fri 12:54:00 PM 48.2963 5.7572 116° Southeast  Level Estimated
Fri 12:55:00 PM 48.2335 5.9510 116° Southeast  Level Estimated
Fri 12:56:00 PM 48.1703 6.1442 116° Southeast  Level Estimated
Fri 12:57:00 PM 48.1068 6.3370 116° Southeast  Level Estimated
Fri 12:58:00 PM 48.0430 6.5293 116° Southeast  Level Estimated
Fri 12:59:00 PM 47.9789 6.7211 116° Southeast  Level Estimated
Fri 01:00:00 PM 47.9145 6.9125 117° Southeast  Level Estimated
Fri 01:01:00 PM 47.8497 7.1034 117° Southeast  Level Estimated
Fri 01:02:00 PM 47.7846 7.2938 117° Southeast  Level Estimated
Fri 01:03:00 PM 47.7192 7.4837 117° Southeast  Level Estimated
Fri 01:04:00 PM 47.6535 7.6732 117° Southeast  Level Estimated
Fri 01:05:00 PM 47.5875 7.8621 117° Southeast  Level Estimated
Fri 01:06:00 PM 47.5211 8.0506 117° Southeast  Level Estimated
Fri 01:07:00 PM 47.4545 8.2386 118° Southeast  Level Estimated
Fri 01:08:00 PM 47.3876 8.4262 118° Southeast  Level Estimated
Fri 01:09:00 PM 47.3203 8.6132 118° Southeast  Level Estimated
Fri 01:10:00 PM 47.2528 8.7998 118° Southeast  Level Estimated
Fri 01:11:00 PM 47.1849 8.9859 118° Southeast  Level Estimated
Fri 01:12:00 PM 47.1167 9.1715 118° Southeast  Level Estimated
Fri 01:13:00 PM 47.0483 9.3567 118° Southeast  Level Estimated
Fri 01:14:00 PM 46.9795 9.5414 119° Southeast  Level Estimated
Fri 01:15:00 PM 46.9105 9.7256 119° Southeast  Level Estimated
Fri 01:16:00 PM 46.8411 9.9093 119° Southeast  Level Estimated
Fri 01:17:00 PM 46.7715 10.0926 119° Southeast  Level Estimated
Fri 01:18:00 PM 46.7015 10.2753 119° Southeast  Level Estimated
Fri 01:19:00 PM 46.6313 10.4577 119° Southeast  Level Estimated
Fri 01:20:00 PM 46.5608 10.6395 119° Southeast  Level Estimated
Fri 01:21:00 PM 46.4900 10.8209 120° Southeast  Level Estimated
Fri 01:22:00 PM 46.4189 11.0017 120° Southeast  Level Estimated
Fri 01:23:00 PM 46.3476 11.1822 120° Southeast  Level Estimated
Fri 01:24:00 PM 46.2759 11.3621 120° Southeast  Level Estimated
Fri 01:25:00 PM 46.2040 11.5416 120° Southeast  Level Estimated
Fri 01:26:00 PM 46.1318 11.7206 120° Southeast  Level Estimated
Fri 01:27:00 PM 46.0593 11.8991 120° Southeast  Level Estimated
Fri 01:28:00 PM 45.9865 12.0772 120° Southeast  Level Estimated
Fri 01:29:00 PM 45.9135 12.2548 121° Southeast  Level Estimated
Fri 01:30:00 PM 45.8402 12.4319 121° Southeast  Level Estimated
Fri 01:31:00 PM 45.7666 12.6086 121° Southeast  Level Estimated
Fri 01:32:00 PM 45.6927 12.7847 121° Southeast  Level Estimated
Fri 01:33:00 PM 45.6172 12.9638 121° Southeast  Level Estimated
Fri 01:34:00 PM 45.5413 13.1424 121° Southeast  Level Estimated
Fri 01:35:00 PM 45.4652 13.3205 121° Southeast  Level Estimated
Fri 01:36:00 PM 45.3888 13.4982 121° Southeast  Level Estimated
Fri 01:37:00 PM 45.3122 13.6754 122° Southeast  Level Estimated
Fri 01:38:00 PM 45.2352 13.8520 122° Southeast  Level Estimated
Fri 01:39:00 PM 45.1580 14.0282 122° Southeast  Level Estimated
Fri 01:40:00 PM 45.0806 14.2039 122° Southeast  Level Estimated
Fri 01:41:00 PM 45.0028 14.3792 122° Southeast  Level Estimated
Fri 01:42:00 PM 44.9248 14.5540 122° Southeast  Level Estimated
Fri 01:43:00 PM 44.8465 14.7283 122° Southeast  Level Estimated
Fri 01:44:00 PM 44.7680 14.9021 122° Southeast  Level Estimated
Fri 01:45:00 PM 44.6892 15.0754 123° Southeast  Level Estimated
Fri 01:46:00 PM 44.6101 15.2483 123° Southeast  Level Estimated
Fri 01:47:00 PM 44.5308 15.4207 123° Southeast  Level Estimated
Fri 01:48:00 PM 44.4512 15.5927 123° Southeast  Level Estimated
Fri 01:49:00 PM 44.3713 15.7641 123° Southeast  Level Estimated
Fri 01:50:00 PM 44.2912 15.9351 123° Southeast  Level Estimated
Fri 01:51:00 PM 44.2109 16.1057 123° Southeast  Level Estimated
Fri 01:52:00 PM 44.1303 16.2757 123° Southeast  Level Estimated
Fri 01:53:00 PM 44.0494 16.4454 124° Southeast  Level Estimated
Fri 01:54:00 PM 43.9683 16.6145 124° Southeast  Level Estimated
Fri 01:55:00 PM 43.8870 16.7832 124° Southeast  Level Estimated
Fri 01:56:00 PM 43.8054 16.9514 124° Southeast  Level Estimated
Fri 01:57:00 PM 43.7235 17.1192 124° Southeast  Level Estimated
Fri 01:58:00 PM 43.6414 17.2864 124° Southeast  Level Estimated
Fri 01:59:00 PM 43.5591 17.4533 124° Southeast  Level Estimated
Fri 02:00:00 PM 43.4765 17.6197 124° Southeast  Level Estimated
Fri 02:01:00 PM 43.3937 17.7856 124° Southeast  Level Estimated
Fri 02:02:00 PM 43.3106 17.9511 125° Southeast  Level Estimated
Fri 02:03:00 PM 43.2273 18.1161 125° Southeast  Level Estimated
Fri 02:04:00 PM 43.1438 18.2807 125° Southeast  Level Estimated
Fri 02:05:00 PM 43.0600 18.4448 125° Southeast  Level Estimated
Fri 02:06:00 PM 42.9760 18.6085 125° Southeast  Level Estimated
Fri 02:07:00 PM 42.8918 18.7717 125° Southeast  Level Estimated
Fri 02:08:00 PM 42.8073 18.9345 125° Southeast  Level Estimated
Fri 02:09:00 PM 42.7226 19.0969 125° Southeast  Level Estimated
Fri 02:10:00 PM 42.6377 19.2588 125° Southeast  Level Estimated
Fri 02:11:00 PM 42.5525 19.4202 126° Southeast  Level Estimated
Fri 02:12:00 PM 42.4672 19.5812 126° Southeast  Level Estimated
Fri 02:13:00 PM 42.3815 19.7418 126° Southeast  Level Estimated
Fri 02:14:00 PM 42.2957 19.9019 126° Southeast  Level Estimated
Fri 02:15:00 PM 42.2097 20.0616 126° Southeast  Level Estimated
Fri 02:16:00 PM 42.1234 20.2209 126° Southeast  Level Estimated
Fri 02:17:00 PM 42.0369 20.3797 126° Southeast  Level Estimated
Fri 02:18:00 PM 41.9502 20.5381 126° Southeast  Level Estimated
Fri 02:19:00 PM 41.8633 20.6961 126° Southeast  Level Estimated
Fri 02:20:00 PM 41.7761 20.8536 127° Southeast  Level Estimated
Fri 02:21:00 PM 41.6888 21.0108 127° Southeast  Level Estimated
Fri 02:22:00 PM 41.6012 21.1674 127° Southeast  Level Estimated
Fri 02:23:00 PM 41.5134 21.3237 127° Southeast  Level Estimated
Fri 02:24:00 PM 41.4254 21.4795 127° Southeast  Level Estimated
Fri 02:25:00 PM 41.3372 21.6350 127° Southeast  Level Estimated
Fri 02:26:00 PM 41.2488 21.7899 127° Southeast  Level Estimated
Fri 02:27:00 PM 41.1602 21.9445 127° Southeast  Level Estimated
Fri 02:28:00 PM 41.0714 22.0987 127° Southeast  Level Estimated
Fri 02:29:00 PM 40.9823 22.2524 127° Southeast  Level Estimated
Fri 02:30:00 PM 40.8931 22.4057 128° Southeast  Level Estimated
Fri 02:31:00 PM 40.8037 22.5586 128° Southeast  Level Estimated
Fri 02:32:00 PM 40.7141 22.7111 128° Southeast  Level Estimated
Fri 02:33:00 PM 40.6242 22.8632 128° Southeast  Level Estimated
Fri 02:34:00 PM 40.5342 23.0149 128° Southeast  Level Estimated
Fri 02:35:00 PM 40.4439 23.1662 128° Southeast  Level Estimated
Fri 02:36:00 PM 40.3535 23.3171 128° Southeast  Level Estimated
Fri 02:37:00 PM 40.2629 23.4675 128° Southeast  Level Estimated
Fri 02:38:00 PM 40.1721 23.6176 128° Southeast  Level Estimated
Fri 02:39:00 PM 40.0811 23.7672 128° Southeast  Level Estimated
Fri 02:40:00 PM 39.9898 23.9165 129° Southeast  Level Estimated
Fri 02:41:00 PM 39.8984 24.0653 129° Southeast  Level Estimated
Fri 02:42:00 PM 39.8069 24.2138 129° Southeast  Level Estimated
Fri 02:43:00 PM 39.7151 24.3619 129° Southeast  Level Estimated
Fri 02:44:00 PM 39.6231 24.5096 129° Southeast  Level Estimated
Fri 02:45:00 PM 39.5310 24.6568 129° Southeast  Level Estimated
Fri 02:46:00 PM 39.4386 24.8037 129° Southeast  Level Estimated
Fri 02:47:00 PM 39.3461 24.9502 129° Southeast  Level Estimated
Fri 02:48:00 PM 39.2534 25.0963 129° Southeast  Level Estimated
Fri 02:49:00 PM 39.1605 25.2421 129° Southeast  Level Estimated
Fri 02:50:00 PM 39.0675 25.3874 129° Southeast  Level Estimated
Fri 02:51:00 PM 38.9743 25.5324 130° Southeast  Level Estimated
Fri 02:52:00 PM 38.8808 25.6769 130° Southeast  Level Estimated
Fri 02:53:00 PM 38.7872 25.8211 130° Southeast  Level Estimated
Fri 02:54:00 PM 38.6935 25.9650 130° Southeast  Level Estimated
Fri 02:55:00 PM 38.5995 26.1084 130° Southeast  Level Estimated
Fri 02:56:00 PM 38.5054 26.2515 130° Southeast  Level Estimated
Fri 02:57:00 PM 38.4111 26.3941 130° Southeast  Level Estimated
Fri 02:58:00 PM 38.3166 26.5365 130° Southeast  Level Estimated
Fri 02:59:00 PM 38.2220 26.6784 130° Southeast  Level Estimated
Fri 03:00:00 PM 38.1271 26.8200 130° Southeast  Level Estimated
Fri 03:01:00 PM 38.0321 26.9612 130° Southeast  Level Estimated
Fri 03:02:00 PM 37.9370 27.1021 131° Southeast  Level Estimated
Fri 03:03:00 PM 37.8417 27.2425 131° Southeast  Level Estimated
Fri 03:04:00 PM 37.7462 27.3827 131° Southeast  Level Estimated
Fri 03:05:00 PM 37.6505 27.5224 131° Southeast  Level Estimated
Fri 03:06:00 PM 37.5547 27.6618 131° Southeast  Level Estimated
Fri 03:07:00 PM 37.4587 27.8009 131° Southeast  Level Estimated
Fri 03:08:00 PM 37.3626 27.9395 131° Southeast  Level Estimated
Fri 03:09:00 PM 37.2663 28.0779 131° Southeast  Level Estimated
Fri 03:10:00 PM 37.1698 28.2158 131° Southeast  Level Estimated
Fri 03:11:00 PM 37.0732 28.3535 131° Southeast  Level Estimated
Fri 03:12:00 PM 36.9764 28.4907 131° Southeast  Level Estimated
Fri 03:13:00 PM 36.8795 28.6276 131° Southeast  Level Estimated
Fri 03:14:00 PM 36.7824 28.7642 132° Southeast  Level Estimated
Fri 03:15:00 PM 36.6851 28.9004 132° Southeast  Level Estimated
Fri 03:16:00 PM 36.5877 29.0363 132° Southeast  Level Estimated
Fri 03:17:00 PM 36.4901 29.1719 132° Southeast  Level Estimated
Fri 03:18:00 PM 36.3924 29.3071 132° Southeast  Level Estimated
Fri 03:19:00 PM 36.2946 29.4419 132° Southeast  Level Estimated
Fri 03:20:00 PM 36.1965 29.5765 132° Southeast  Level Estimated
Fri 03:21:00 PM 36.0984 29.7106 132° Southeast  Level Estimated
Fri 03:22:00 PM 36.0000 29.8445 132° Southeast  Level Estimated
Fri 03:23:00 PM 35.9016 29.9780 132° Southeast  Level Estimated
Fri 03:24:00 PM 35.8030 30.1112 132° Southeast  Level Estimated
Fri 03:25:00 PM 35.7042 30.2440 132° Southeast  Level Estimated
Fri 03:26:00 PM 35.6053 30.3766 133° Southeast  Level Estimated
Fri 03:27:00 PM 35.5062 30.5088 133° Southeast  Level Estimated
Fri 03:28:00 PM 35.4071 30.6406 133° Southeast  Level Estimated
Fri 03:29:00 PM 35.3077 30.7722 133° Southeast  Level Estimated
Fri 03:30:00 PM 35.2082 30.9034 133° Southeast  Level Estimated
Fri 03:31:00 PM 35.1086 31.0343 133° Southeast  Level Estimated
Fri 03:32:00 PM 35.0089 31.1649 133° Southeast  Level Estimated
Fri 03:33:00 PM 34.9090 31.2951 133° Southeast  Level Estimated
Fri 03:34:00 PM 34.8089 31.4251 133° Southeast  Level Estimated
Fri 03:35:00 PM 34.7087 31.5547 133° Southeast  Level Estimated
Fri 03:36:00 PM 34.6084 31.6840 133° Southeast  Level Estimated
Fri 03:37:00 PM 34.5080 31.8130 133° Southeast  Level Estimated
Fri 03:38:00 PM 34.4074 31.9417 133° Southeast  Level Estimated
Fri 03:39:00 PM 34.3067 32.0701 134° Southeast  Level Estimated
Fri 03:40:00 PM 34.2058 32.1982 134° Southeast  Level Estimated
Fri 03:41:00 PM 34.1048 32.3260 134° Southeast  Level Estimated
Fri 03:42:00 PM 34.0037 32.4534 134° Southeast  Level Estimated
Fri 03:43:00 PM 33.9025 32.5806 134° Southeast  Level Estimated
Fri 03:44:00 PM 33.8011 32.7075 134° Southeast  Level Estimated
Fri 03:45:00 PM 33.6996 32.8340 134° Southeast  Level Estimated
Fri 03:46:00 PM 33.5979 32.9603 134° Southeast  Level Estimated
Fri 03:47:00 PM 33.4962 33.0863 134° Southeast  Level Estimated
Fri 03:48:00 PM 33.3943 33.2119 134° Southeast  Level Estimated
Fri 03:49:00 PM 33.2923 33.3373 134° Southeast  Level Estimated
Fri 03:50:00 PM 33.1901 33.4624 134° Southeast  Level Estimated
Fri 03:51:00 PM 33.0878 33.5872 134° Southeast  Level Estimated
Fri 03:52:00 PM 32.9855 33.7117 134° Southeast  Level Estimated
Fri 03:53:00 PM 32.8829 33.8359 134° Southeast  Level Estimated
Fri 03:54:00 PM 32.7803 33.9598 135° Southeast  Level Estimated
Fri 03:55:00 PM 32.6775 34.0834 135° Southeast  Level Estimated
Fri 03:56:00 PM 32.5746 34.2068 135° Southeast  Level Estimated
Fri 03:57:00 PM 32.4716 34.3298 135° Southeast  Level Estimated
Fri 03:58:00 PM 32.3685 34.4526 135° Southeast  Level Estimated
Fri 03:59:00 PM 32.2653 34.5751 135° Southeast  Level Estimated
Fri 04:00:00 PM 32.1619 34.6974 135° Southeast  Level Estimated
Fri 04:01:00 PM 32.0585 34.8193 135° Southeast  Level Estimated
Fri 04:02:00 PM 32.0095 34.8769 135° Southeast  Level Estimated
Fri 04:03:00 PM 32.0095 34.8769 270° West  Level Estimated
Fri 04:04:00 PM 32.0095 34.8769 270° West  Level Estimated
Fri 04:05:00 PM 32.0095 34.8769 270° West  Level Estimated
Fri 04:06:00 PM 32.0095 34.8769 270° West  Level Estimated
Fri 04:07:00 PM 32.0095 34.8769 270° West  Level Estimated
Fri 04:08:00 PM 32.0095 34.8769 270° West  Level Estimated
Fri 04:09:00 PM 32.0095 34.8769 270° West  Level Estimated
Fri 04:10:00 PM 32.0095 34.8769 270° West  Level Estimated
Fri 04:11:00 PM 32.0095 34.8769 270° West  Level Estimated
Fri 04:12:00 PM 32.0095 34.8769 270° West  Level Estimated
Fri 04:13:00 PM 32.0095 34.8769 270° West  Level Estimated
Fri 04:14:00 PM 32.0095 34.8769 270° West  Level Estimated
Fri 04:15:00 PM 32.0095 34.8769 270° West  Level Estimated
Fri 04:16:00 PM 32.0095 34.8769 270° West  Level Estimated
Fri 04:17:00 PM 32.0095 34.8769 270° West  Level Estimated
Fri 04:18:00 PM 32.0095 34.8769 270° West  Level Estimated
Fri 04:19:00 PM 32.0095 34.8769 270° West  Level Estimated
Fri 04:20:00 PM 32.0095 34.8769 270° West  Level Estimated
Fri 04:21:00 PM 32.0095 34.8769 270° West  Level Estimated
Fri 04:22:00 PM 32.0095 34.8769 270° West  Level Estimated
Fri 04:23:00 PM 32.0095 34.8769 270° West  Level Estimated
Fri 04:24:00 PM 32.0095 34.8769 270° West  Level Estimated
Fri 04:25:00 PM 32.0095 34.8769 270° West  Level Estimated
Fri 04:26:00 PM 32.0095 34.8769 270° West  Level Estimated

Login

Don't have an account? Register now (free) for customized features, flight alerts, and more!